Nearby METAR Reports

EGNX - East Midlands, United Kingdom
Distance: S 18mi, 28km
Updated: 23/01/2019 09:20
Few Clouds
Few Clouds
 Wind from WNW
Wind: WNW 10 mph , 17 km/h
Temperature: -1°C
Wind Chill: -6°C
Dew Point: -2°C
Humidity: 93%
Barometer: 1002 hPa
Clouds: Few Clouds
Visibility: 6 miles , 10 km
Cloud details: Few Clouds 305 m
2019/01/23 09:20 EGNX 230920Z 30009KT 9999 FEW010 M01/M02 Q1002
EGCN - Doncaster Sheffi, United Kingdom
Distance: NNE 31mi, 50km
Updated: 23/01/2019 09:20
Clear
Clear
 Wind from NW
Wind: NW 9 mph , 15 km/h
Temperature: 0°C
Wind Chill: -4°C
Dew Point: -1°C
Humidity: 93%
Barometer: 1003 hPa
Summary: Clear
Visibility: greater than 7 miles , 10 km
2019/01/23 09:20 EGCN 230920Z 31008KT CAVOK M00/M01 Q1003
EGYE - Barkston Heath R, United Kingdom
Distance: ESE 31mi, 50km
Updated: 23/01/2019 08:50
Haze, Few clouds
Haze, Few clouds
 Wind from NW
Wind: NW 9 mph , 15 km/h
Barometer: 1000 hPa
Summary: Haze
Clouds: Few Clouds
Visibility: 5 miles , 8 km
Cloud details: Few Clouds 762 m
2019/01/23 08:50 EGYE 230850Z 31008KT 8000 HZ FEW025 ///// Q1000 BLACKBLU
 
EGXW - Waddington Raf, United Kingdom
Distance: ENE 33mi, 53km
Updated: 23/01/2019 08:50
Mist, Few clouds
Mist, Few clouds
 Wind from NW
Wind: NW 10 mph , 17 km/h
Temperature: -2°C
Wind Chill: -7°C
Dew Point: -2°C
Humidity: 100%
Barometer: 1001 hPa
Summary: Mist
Clouds: Few Clouds
Visibility: 6 miles , 9 km
Cloud details: Few Clouds 457 m
2019/01/23 08:50 EGXW 230850Z 32009KT 9000 BR FEW015 M02/M02 Q1001 BLU NOSIG
EGYD - Cranwell Raf, United Kingdom
Distance: E 33mi, 53km
Updated: 23/01/2019 08:50
Haze, Few clouds
Haze, Few clouds
 Wind from NW
Wind: NW 12 mph , 19 km/h
Temperature: -1°C
Wind Chill: -7°C
Dew Point: -3°C
Humidity: 86%
Barometer: 1001 hPa
Summary: Haze
Clouds: Few Clouds
Visibility: 5 miles , 8 km
Cloud details: Few Clouds 762 m
2019/01/23 08:50 EGYD 230850Z 31010KT 8000 HZ FEW025 M01/M03 Q1001 BLACKBLU TEMPO 6000 BR WHT
EGXP - Scampton Raf, United Kingdom
Distance: ENE 35mi, 56km
Updated: 23/01/2019 08:50
Few Clouds
Few Clouds
 Wind from NW
Wind: NW 12 mph , 19 km/h
Temperature: -2°C
Wind Chill: -8°C
Dew Point: -3°C
Humidity: 93%
Barometer: 1000 hPa
Clouds: Few Clouds
Visibility: 6 miles , 10 km
Cloud details: Few Clouds 762 m
2019/01/23 08:50 EGXP 230850Z 31010KT 9999 FEW025CB M02/M03 Q1000 BLU
 
EGCC - Manchester Intl, United Kingdom
Distance: WNW 45mi, 72km
Updated: 23/01/2019 09:20
Freezing fog, Partly cloudy
Freezing fog, Partly cloudy
 Wind from varies
Wind: varies 1 mph , 2 km/h
Temperature: -2°C
Dew Point: -3°C
Humidity: 93%
Barometer: 1003 hPa
Summary: Freezing Fog
Clouds: Partly cloudy
Visibility: 1 mile , 1 km
2019/01/23 09:20 EGCC 230920Z VRB01KT 0900 R23R/1100 FZFG NSC M02/M03 Q1003 BECMG 1500 BR
EGBB - Birmingham Airpo, United Kingdom
Distance: SSW 46mi, 74km
Updated: 23/01/2019 09:20
Partly cloudy
Partly cloudy
 Wind from NNW
Wind: NNW 9 mph , 15 km/h
Temperature: 0°C
Wind Chill: -4°C
Dew Point: -2°C
Humidity: 87%
Barometer: 1002 hPa
Clouds: Partly cloudy
Visibility: 6 miles , 9 km
2019/01/23 09:20 EGBB 230920Z 33008KT 9000 NSC M00/M02 Q1002
EGXC - Coningsby Raf, United Kingdom
Distance: E 47mi, 75km
Updated: 23/01/2019 08:50
Haze, Mostly cloudy
Haze, Mostly cloudy
 Wind from NW
Wind: NW 12 mph , 19 km/h
Temperature: -1°C
Wind Chill: -7°C
Dew Point: -2°C
Humidity: 93%
Barometer: 1001 hPa
Summary: Haze
Clouds: Mostly cloudy
Visibility: 5 miles , 8 km
Cloud details: Mostly cloudy 244 m
2019/01/23 08:50 EGXC 230850Z 32010KT 8000 HZ BKN008 M01/M02 Q1001 GRN BECMG FEW008 BLU
 
EGXT - Wittering Raf, United Kingdom
Distance: SE 47mi, 75km
Updated: 23/01/2019 08:50
Few Clouds
Few Clouds
 Wind from NNW
Wind: NNW 9 mph , 15 km/h
Temperature: -1°C
Wind Chill: -6°C
Dew Point: -2°C
Humidity: 93%
Barometer: 1000 hPa
Clouds: Few Clouds
Visibility: 6 miles , 10 km
Cloud details: Few Clouds 610 m
2019/01/23 08:50 EGXT 230850Z 33008KT 9999 FEW020 M01/M02 Q1000 BLACKBLU
EGNJ - Humberside, United Kingdom
Distance: NE 52mi, 83km
Updated: 23/01/2019 09:20
Partly cloudy
Partly cloudy
 Wind from W
Wind: W 5 mph , 7 km/h
Temperature: -1°C
Wind Chill: -4°C
Dew Point: -2°C
Humidity: 93%
Barometer: 1001 hPa
Clouds: Partly cloudy
Visibility: 6 miles , 9 km
Cloud details: Few Clouds 244 m
Partly cloudy 305 m
2019/01/23 09:20 EGNJ 230920Z 28004KT 9000 FEW008 SCT010 M01/M02 Q1001
EGWC - Cosford Raf, United Kingdom
Distance: SW 52mi, 83km
Updated: 23/01/2019 08:50
Mist, Mostly cloudy
Mist, Mostly cloudy
 Wind from NNW
Wind: NNW 6 mph , 9 km/h
Temperature: 0°C
Wind Chill: -3°C
Dew Point: -1°C
Humidity: 93%
Barometer: 1002 hPa
Summary: Mist
Clouds: Mostly cloudy
Visibility: 3 miles , 5 km
Cloud details: Mostly cloudy 152 m
2019/01/23 08:50 EGWC 230850Z 34005KT 5000 BR BKN005 00/M01 Q1002 BLACKYLO1
 
EGNM - Leeds And Bradfo, United Kingdom
Distance: NNW 57mi, 91km
Updated: 23/01/2019 09:20
Clear
Clear
 Wind from WNW
Wind: WNW 8 mph , 13 km/h
Temperature: -2°C
Wind Chill: -7°C
Dew Point: -4°C
Humidity: 86%
Barometer: 1001 hPa
Summary: Clear
Visibility: greater than 7 miles , 10 km
2019/01/23 09:20 EGNM 230920Z 29007KT CAVOK M02/M04 Q1001
EGOS - Shawbury Raf, United Kingdom
Distance: WSW 60mi, 97km
Updated: 23/01/2019 08:50
Few Clouds
Few Clouds
 Wind from WNW
Wind: WNW 8 mph , 13 km/h
Temperature: -1°C
Wind Chill: -6°C
Dew Point: -1°C
Humidity: 100%
Barometer: 1002 hPa
Clouds: Few Clouds
Visibility: 6 miles , 10 km
Cloud details: Few Clouds 122 m
2019/01/23 08:50 EGOS 230850Z 29007KT 9999 FEW004 M01/M01 Q1002 BLU NOSIG
EGYH - Holbeach (aut), United Kingdom
Distance: ESE 62mi, 99km
Updated: 23/01/2019 08:50
Mist, Mostly cloudy
Mist, Mostly cloudy
 Wind from NNW
Wind: NNW 10 mph , 17 km/h
Temperature: 0°C
Wind Chill: -4°C
Dew Point: 0°C
Humidity: 100%
Barometer: 1001 hPa
Summary: Mist
Clouds: Mostly cloudy
Visibility: 4 miles , 6 km
Cloud details: Mostly cloudy 305 m
2019/01/23 08:50 EGYH 230850Z 33009KT 6000 BR BKN010 00/00 Q1001 GRN
 
EGXV - Leconfield (aut), United Kingdom
Distance: NNE 65mi, 105km
Updated: 23/01/2019 08:50
Clear
Clear
 Wind from WNW
Wind: WNW 3 mph , 6 km/h
Temperature: -2°C
Dew Point: -3°C
Humidity: 93%
Barometer: 1001 hPa
Clouds: Clear
Visibility: 6 miles , 10 km
2019/01/23 08:50 EGXV 230850Z AUTO 30003KT 9999 NCD M02/M03 Q1001
EGXS - Donna Nook Raf, United Kingdom
Distance: ENE 66mi, 106km
Updated: 23/01/2019 08:50
Partly cloudy
Partly cloudy
 Wind from W
Wind: W 10 mph , 17 km/h
Temperature: 1°C
Wind Chill: -3°C
Dew Point: 0°C
Humidity: 93%
Barometer: 1000 hPa
Clouds: Partly cloudy
Visibility: 6 miles , 10 km
Cloud details: Mostly cloudy 183 m
Partly cloudy 427 m
2019/01/23 08:50 EGXS 230850Z AUTO 27009KT 9999 // BKN006/// SCT014/// 01/00 Q1000
EGGP - Liverpool Airpor, United Kingdom
Distance: WNW 67mi, 107km
Updated: 23/01/2019 09:20
Freezing fog, Few clouds
Freezing fog, Few clouds
 Wind from calm
Wind: Calm
Temperature: -3°C
Dew Point: -3°C
Humidity: 100%
Barometer: 1003 hPa
Summary: Freezing Fog
Clouds: Few Clouds
Visibility: 0 mile , 0 km
Cloud details: Few Clouds 305 m
2019/01/23 09:20 EGGP 230920Z 00000KT 0100 R27/0125 FZFG FEW010 M03/M03 Q1003
 
EGXU - Linton-On-Ouse R, United Kingdom
Distance: N 68mi, 109km
Updated: 23/01/2019 08:50
Few Clouds
Few Clouds
 Wind from NW
Wind: NW 8 mph , 13 km/h
Temperature: -3°C
Wind Chill: -7°C
Dew Point: -4°C
Humidity: 93%
Barometer: 1001 hPa
Clouds: Few Clouds
Visibility: 6 miles , 10 km
Cloud details: Few Clouds 305 m
2019/01/23 08:50 EGXU 230850Z 32007KT 9999 FEW010TCU M03/M04 Q1001 BLU NOSIG
EGNR - Hawarden (aut), United Kingdom
Distance: W 70mi, 112km
Updated: 23/01/2019 09:20
Few Clouds
Few Clouds
 Wind from WNW
Wind: WNW 5 mph , 7 km/h
Temperature: 0°C
Wind Chill: -3°C
Dew Point: -1°C
Humidity: 93%
Barometer: 1004 hPa
Clouds: Few Clouds
Visibility: 6 miles , 10 km
Cloud details: Few Clouds 518 m
2019/01/23 09:20 EGNR 230920Z 30004KT 9999 FEW017 M00/M01 Q1004